Elderon, WI

7:09 AM CDT on August 31, 2015 (GMT -0500)
Wittenberg Wi. | | Change Station
CLOSE
Current Station
Personal Weather Station
Location: Wittenberg, WI
Elevation: 1191 ft
Nearby Weather Stations
Active Advisory: Special Statement

Elev 1191 ft 44.83 °N, 89.17 °W | Updated 14 seconds ago

Fog
Fog
62.2 °F
Feels Like 62.2 °F
N
0.0
Wind Variable Wind from SSE
Gusts 0.0 mph

Today
High -- | Low -- °F
--% Chance of Precip.
Yesterday
High -- | Low -- °F
Precip. -- in
6:17 AM 7:36 PM
Waning Gibbous, 95% visible
Pressure 30.04 in
Visibility 0.2 miles
Clouds Overcast 200 ft
Dew Point 62 °F
Humidity 98%
Rainfall 0.00 in
Snow Depth Not available.
UV 0.0 out of 12
Pollen 10.20 out of 12
Air Quality Not available.
Flu Activity Not available.
METAR KCWA 311145Z 00000KT 1/4SM FG OVC002 16/16 A3004
Pressure 30.04 in
Visibility 0.2 miles
Clouds Overcast 200 ft
Dew Point 62 °F
Humidity 98%
Rainfall 0.00 in
Snow Depth Not available.
UV 0.0 out of 12
Pollen 10.20 out of 12
Air Quality Not available.
Flu Activity Not available.
METAR KCWA 311145Z 00000KT 1/4SM FG OVC002 16/16 A3004

10-Day Weather Forecast

×

Almanac

Astronomy

Aug. 31, 2015 Rise Set
Actual Time
Civil Twilight
Nautical Twilight
Astronomical Twilight
Moon
Length of Visible Light
Length of Day
Tomorrow will be .
, % of the Moon is Illuminated

Today's Extremes

State Highs State Lows

Community

WunderPhotos

Upload Photos

1,851,218 photos uploaded!

WunderBlogs® & News

Nearby

Air Quality

  Air Quality AQ Index Pollutant
Not available.

Snow Depth

Station Depth Elevation

Earthquake Activity

City Distance Mag. Time & Date
Minimum magnitude displayed is 2.5.

Coastal Water Temperatures

Place Temperature

Stations

Nearby Weather Stations

Station Location Temp. Windchill Dew Point Humidity Wind Precip. Elev Updated Type
                   
Special Statement
Statement as of 4:22 AM CDT on August 31, 2015

... Areas of dense fog across central and east central Wisconsin...

Moist air combined with light winds and clear skies has resulted
in dense fog across parts of central and east central Wisconsin
again early this morning. Visibilities will be less than a quarter
mile in some areas so drive with care and be ready to slow down
when driving in fog. It should start to dissipate an hour or so
after sunrise.

Rdm

422 am CDT Mon Aug 31 2015

... Areas of dense fog across central and east central Wisconsin...

Moist air combined with light winds and clear skies has resulted
in dense fog across parts of central and east central Wisconsin
again early this morning. Visibilities will be less than a quarter
mile in some areas so drive with care and be ready to slow down
when driving in fog. It should start to dissipate an hour or so
after sunrise.

Rdm